Wetterdaten: Donnerstag, 17.02.2022
Datum Zeit Temp. A. Feuchte A. Luftdruck Regen Wind Richtung Richtung Sonnenschein UV Solar Windben
17.02.2022 00:00 13,2 C 90 % 987,8 hPa 0,3 mm 14,5 km/h (3 Bft) W-SW 248 0 min 0 UV-I 0 W/m 45,1 km/h (6 Bft)
17.02.2022 00:10 13,1 C 89 % 988,1 hPa 0,0 mm 17,7 km/h (3 Bft) W-SW 248 0 min 0 UV-I 0 W/m 43,5 km/h (6 Bft)
17.02.2022 00:20 13,1 C 89 % 987,8 hPa 0,3 mm 19,3 km/h (3 Bft) W-SW 248 0 min 0 UV-I 0 W/m 46,7 km/h (6 Bft)
17.02.2022 00:30 13,0 C 89 % 987,7 hPa 0,3 mm 19,3 km/h (3 Bft) SW 225 0 min 0 UV-I 0 W/m 38,6 km/h (5 Bft)
17.02.2022 00:40 12,8 C 89 % 987,7 hPa 0,0 mm 20,9 km/h (4 Bft) W-SW 248 0 min 0 UV-I 0 W/m 48,3 km/h (6 Bft)
17.02.2022 00:50 12,7 C 89 % 989,2 hPa 0,8 mm 24,1 km/h (4 Bft) W-SW 248 0 min 0 UV-I 0 W/m 53,1 km/h (7 Bft)
17.02.2022 01:00 11,3 C 86 % 989,2 hPa 0,8 mm 24,1 km/h (4 Bft) W-NW 293 0 min 0 UV-I 0 W/m 59,5 km/h (7 Bft)
17.02.2022 01:10 10,3 C 89 % 988,9 hPa 0,0 mm 14,5 km/h (3 Bft) W 270 0 min 0 UV-I 0 W/m 37,0 km/h (5 Bft)
17.02.2022 01:20 10,8 C 89 % 988,8 hPa 0,0 mm 14,5 km/h (3 Bft) W 270 0 min 0 UV-I 0 W/m 41,8 km/h (6 Bft)
17.02.2022 01:30 11,3 C 85 % 989,4 hPa 0,0 mm 20,9 km/h (4 Bft) W-SW 248 0 min 0 UV-I 0 W/m 53,1 km/h (7 Bft)
17.02.2022 01:40 11,0 C 85 % 989,1 hPa 0,8 mm 24,1 km/h (4 Bft) W 270 0 min 0 UV-I 0 W/m 48,3 km/h (6 Bft)
17.02.2022 01:50 10,7 C 86 % 989,3 hPa 0,3 mm 22,5 km/h (4 Bft) W 270 0 min 0 UV-I 0 W/m 43,5 km/h (6 Bft)
17.02.2022 02:00 10,4 C 86 % 989,3 hPa 0,0 mm 16,1 km/h (3 Bft) W 270 0 min 0 UV-I 0 W/m 37,0 km/h (5 Bft)
17.02.2022 02:10 10,2 C 86 % 988,8 hPa 0,0 mm 12,9 km/h (3 Bft) W 270 0 min 0 UV-I 0 W/m 32,2 km/h (5 Bft)
17.02.2022 02:20 10,3 C 85 % 989,1 hPa 0,3 mm 12,9 km/h (3 Bft) W 270 0 min 0 UV-I 0 W/m 30,6 km/h (5 Bft)
17.02.2022 02:30 10,4 C 85 % 989,1 hPa 0,3 mm 12,9 km/h (3 Bft) W 270 0 min 0 UV-I 0 W/m 37,0 km/h (5 Bft)
17.02.2022 02:40 10,3 C 86 % 988,6 hPa 0,3 mm 11,3 km/h (2 Bft) W 270 0 min 0 UV-I 0 W/m 30,6 km/h (5 Bft)
17.02.2022 02:50 10,3 C 87 % 989,1 hPa 0,3 mm 9,7 km/h (2 Bft) W-SW 248 0 min 0 UV-I 0 W/m 29,0 km/h (5 Bft)
17.02.2022 03:00 10,4 C 88 % 988,7 hPa 0,5 mm 16,1 km/h (3 Bft) W-SW 248 0 min 0 UV-I 0 W/m 40,2 km/h (6 Bft)
17.02.2022 03:10 10,4 C 88 % 988,5 hPa 0,3 mm 17,7 km/h (3 Bft) W-SW 248 0 min 0 UV-I 0 W/m 40,2 km/h (6 Bft)
17.02.2022 03:20 10,3 C 88 % 988,9 hPa 0,0 mm 16,1 km/h (3 Bft) W 270 0 min 0 UV-I 0 W/m 32,2 km/h (5 Bft)
17.02.2022 03:30 10,2 C 89 % 988,7 hPa 0,3 mm 11,3 km/h (2 Bft) W-SW 248 0 min 0 UV-I 0 W/m 24,1 km/h (4 Bft)
17.02.2022 03:40 10,1 C 89 % 989,0 hPa 0,3 mm 14,5 km/h (3 Bft) SW 225 0 min 0 UV-I 0 W/m 29,0 km/h (5 Bft)
17.02.2022 03:50 9,9 C 89 % 989,5 hPa 0,5 mm 16,1 km/h (3 Bft) W 270 0 min 0 UV-I 0 W/m 38,6 km/h (5 Bft)
17.02.2022 04:00 9,6 C 88 % 990,4 hPa 1,3 mm 19,3 km/h (3 Bft) W 270 0 min 0 UV-I 0 W/m 53,1 km/h (7 Bft)
17.02.2022 04:10 9,0 C 85 % 990,6 hPa 0,5 mm 24,1 km/h (4 Bft) W 270 0 min 0 UV-I 0 W/m 62,8 km/h (8 Bft)
17.02.2022 04:20 8,7 C 85 % 990,7 hPa 0,0 mm 20,9 km/h (4 Bft) W 270 0 min 0 UV-I 0 W/m 48,3 km/h (6 Bft)
17.02.2022 04:30 8,9 C 84 % 990,7 hPa 0,0 mm 20,9 km/h (4 Bft) W 270 0 min 0 UV-I 0 W/m 45,1 km/h (6 Bft)
17.02.2022 04:40 9,3 C 82 % 991,0 hPa 0,3 mm 24,1 km/h (4 Bft) W 270 0 min 0 UV-I 0 W/m 61,2 km/h (7 Bft)
17.02.2022 04:50 9,6 C 81 % 991,2 hPa 0,0 mm 20,9 km/h (4 Bft) W 270 0 min 0 UV-I 0 W/m 45,1 km/h (6 Bft)
17.02.2022 05:00 9,7 C 79 % 991,4 hPa 0,0 mm 19,3 km/h (3 Bft) W 270 0 min 0 UV-I 0 W/m 51,5 km/h (7 Bft)
17.02.2022 05:10 9,3 C 79 % 991,9 hPa 1,0 mm 24,1 km/h (4 Bft) W 270 0 min 0 UV-I 0 W/m 57,9 km/h (7 Bft)
17.02.2022 05:20 8,2 C 80 % 992,1 hPa 0,8 mm 22,5 km/h (4 Bft) W 270 0 min 0 UV-I 0 W/m 57,9 km/h (7 Bft)
17.02.2022 05:30 7,7 C 81 % 992,7 hPa 0,0 mm 19,3 km/h (3 Bft) W-NW 293 0 min 0 UV-I 0 W/m 46,7 km/h (6 Bft)
17.02.2022 05:40 7,7 C 82 % 992,8 hPa 0,0 mm 16,1 km/h (3 Bft) W-NW 293 0 min 0 UV-I 0 W/m 45,1 km/h (6 Bft)
17.02.2022 05:50 7,6 C 83 % 992,9 hPa 0,0 mm 12,9 km/h (3 Bft) W 270 0 min 0 UV-I 0 W/m 35,4 km/h (5 Bft)
17.02.2022 06:00 7,6 C 83 % 993,4 hPa 0,3 mm 17,7 km/h (3 Bft) W 270 0 min 0 UV-I 0 W/m 51,5 km/h (7 Bft)
17.02.2022 06:10 7,4 C 82 % 993,2 hPa 2,0 mm 25,7 km/h (4 Bft) W 270 0 min 0 UV-I 0 W/m 64,4 km/h (8 Bft)
17.02.2022 06:20 6,8 C 85 % 993,5 hPa 0,3 mm 17,7 km/h (3 Bft) W-NW 293 0 min 0 UV-I 0 W/m 48,3 km/h (6 Bft)
17.02.2022 06:30 7,0 C 86 % 993,8 hPa 0,0 mm 16,1 km/h (3 Bft) W 270 0 min 0 UV-I 0 W/m 33,8 km/h (5 Bft)
17.02.2022 06:40 7,3 C 89 % 994,0 hPa 0,0 mm 12,9 km/h (3 Bft) W 270 0 min 0 UV-I 0 W/m 32,2 km/h (5 Bft)
17.02.2022 06:50 7,8 C 81 % 994,4 hPa 0,0 mm 17,7 km/h (3 Bft) W 270 0 min 0 UV-I 0 W/m 40,2 km/h (6 Bft)
17.02.2022 07:00 8,2 C 78 % 994,5 hPa 0,0 mm 17,7 km/h (3 Bft) W 270 0 min 0 UV-I 0 W/m 33,8 km/h (5 Bft)
17.02.2022 07:10 8,3 C 78 % 994,7 hPa 0,0 mm 14,5 km/h (3 Bft) W 270 0 min 0 UV-I 0 W/m 33,8 km/h (5 Bft)
17.02.2022 07:20 8,1 C 79 % 994,9 hPa 0,0 mm 19,3 km/h (3 Bft) W 270 0 min 0 UV-I 0 W/m 49,9 km/h (6 Bft)
17.02.2022 07:30 7,8 C 78 % 994,9 hPa 0,0 mm 20,9 km/h (4 Bft) W-NW 293 0 min 0 UV-I 0 W/m 45,1 km/h (6 Bft)
17.02.2022 07:40 7,8 C 79 % 995,0 hPa 0,0 mm 14,5 km/h (3 Bft) W 270 0 min 0 UV-I 0 W/m 30,6 km/h (5 Bft)
17.02.2022 07:50 7,8 C 79 % 994,9 hPa 0,0 mm 12,9 km/h (3 Bft) W 270 0 min 0 UV-I 1 W/m 33,8 km/h (5 Bft)
17.02.2022 08:00 8,1 C 78 % 995,3 hPa 0,0 mm 14,5 km/h (3 Bft) W-SW 248 0 min 0 UV-I 9 W/m 33,8 km/h (5 Bft)
17.02.2022 08:10 8,3 C 77 % 995,7 hPa 0,0 mm 14,5 km/h (3 Bft) W 270 0 min 0 UV-I 12 W/m 32,2 km/h (5 Bft)
17.02.2022 08:20 8,4 C 75 % 995,9 hPa 0,0 mm 16,1 km/h (3 Bft) W 270 0 min 0 UV-I 9 W/m 35,4 km/h (5 Bft)
17.02.2022 08:30 8,2 C 72 % 996,1 hPa 0,0 mm 14,5 km/h (3 Bft) W 270 0 min 0 UV-I 23 W/m 38,6 km/h (5 Bft)
17.02.2022 08:40 7,9 C 71 % 996,5 hPa 0,0 mm 14,5 km/h (3 Bft) W 270 0 min 0 UV-I 24 W/m 30,6 km/h (5 Bft)
17.02.2022 08:50 7,7 C 73 % 996,8 hPa 0,0 mm 12,9 km/h (3 Bft) W 270 0 min 0 UV-I 35 W/m 41,8 km/h (6 Bft)
17.02.2022 09:00 7,7 C 75 % 997,1 hPa 0,0 mm 14,5 km/h (3 Bft) W 270 0 min 0 UV-I 27 W/m 27,4 km/h (4 Bft)
17.02.2022 09:10 7,6 C 76 % 997,5 hPa 0,0 mm 14,5 km/h (3 Bft) W 270 0 min 0 UV-I 21 W/m 30,6 km/h (5 Bft)
17.02.2022 09:20 7,6 C 76 % 997,8 hPa 0,0 mm 12,9 km/h (3 Bft) W 270 0 min 0 UV-I 42 W/m 30,6 km/h (5 Bft)
17.02.2022 09:30 7,6 C 76 % 997,8 hPa 0,0 mm 12,9 km/h (3 Bft) W 270 0 min 0 UV-I 88 W/m 27,4 km/h (4 Bft)
17.02.2022 09:40 7,9 C 74 % 998,2 hPa 0,0 mm 12,9 km/h (3 Bft) W 270 0 min 0 UV-I 112 W/m 25,7 km/h (4 Bft)
17.02.2022 09:50 8,1 C 76 % 998,4 hPa 0,0 mm 11,3 km/h (2 Bft) W-SW 248 0 min 0 UV-I 98 W/m 25,7 km/h (4 Bft)
17.02.2022 10:00 8,2 C 76 % 998,6 hPa 0,0 mm 12,9 km/h (3 Bft) W 270 0 min 0 UV-I 68 W/m 27,4 km/h (4 Bft)
17.02.2022 10:10 8,2 C 73 % 998,8 hPa 0,0 mm 14,5 km/h (3 Bft) W 270 0 min 1 UV-I 100 W/m 41,8 km/h (6 Bft)
17.02.2022 10:20 8,3 C 70 % 999,2 hPa 0,0 mm 16,1 km/h (3 Bft) W 270 0 min 1 UV-I 86 W/m 35,4 km/h (5 Bft)
17.02.2022 10:30 8,3 C 70 % 999,3 hPa 0,0 mm 12,9 km/h (3 Bft) W 270 0 min 0 UV-I 89 W/m 32,2 km/h (5 Bft)
17.02.2022 10:40 8,4 C 71 % 999,8 hPa 0,0 mm 17,7 km/h (3 Bft) W 270 0 min 1 UV-I 83 W/m 38,6 km/h (5 Bft)
17.02.2022 10:50 8,2 C 73 % 999,9 hPa 0,0 mm 14,5 km/h (3 Bft) W 270 0 min 1 UV-I 100 W/m 35,4 km/h (5 Bft)
17.02.2022 11:00 8,2 C 69 % 1000,4 hPa 0,0 mm 16,1 km/h (3 Bft) W 270 0 min 1 UV-I 146 W/m 37,0 km/h (5 Bft)
17.02.2022 11:10 8,5 C 69 % 1000,4 hPa 0,0 mm 11,3 km/h (2 Bft) W 270 0 min 1 UV-I 122 W/m 29,0 km/h (5 Bft)
17.02.2022 11:20 8,6 C 71 % 1000,6 hPa 0,0 mm 14,5 km/h (3 Bft) W 270 0 min 1 UV-I 174 W/m 32,2 km/h (5 Bft)
17.02.2022 11:30 8,6 C 71 % 1001,0 hPa 0,0 mm 12,9 km/h (3 Bft) W 270 0 min 1 UV-I 150 W/m 32,2 km/h (5 Bft)
17.02.2022 11:40 8,6 C 70 % 1001,2 hPa 0,0 mm 16,1 km/h (3 Bft) W 270 0 min 1 UV-I 167 W/m 43,5 km/h (6 Bft)
17.02.2022 11:50 8,9 C 70 % 1001,3 hPa 0,0 mm 14,5 km/h (3 Bft) W 270 10 min 1 UV-I 456 W/m 38,6 km/h (5 Bft)
17.02.2022 12:00 9,3 C 68 % 1001,2 hPa 0,0 mm 17,7 km/h (3 Bft) W-SW 248 10 min 1 UV-I 333 W/m 43,5 km/h (6 Bft)
17.02.2022 12:10 9,4 C 66 % 1001,5 hPa 0,0 mm 19,3 km/h (3 Bft) W 270 10 min 2 UV-I 525 W/m 43,5 km/h (6 Bft)
17.02.2022 12:20 9,6 C 66 % 1001,6 hPa 0,0 mm 16,1 km/h (3 Bft) W 270 10 min 1 UV-I 494 W/m 30,6 km/h (5 Bft)
17.02.2022 12:30 9,9 C 62 % 1001,9 hPa 0,0 mm 16,1 km/h (3 Bft) W 270 10 min 1 UV-I 350 W/m 40,2 km/h (6 Bft)
17.02.2022 12:40 9,7 C 62 % 1002,1 hPa 0,0 mm 19,3 km/h (3 Bft) W 270 10 min 1 UV-I 400 W/m 46,7 km/h (6 Bft)
17.02.2022 12:50 9,7 C 62 % 1002,4 hPa 0,0 mm 14,5 km/h (3 Bft) W 270 10 min 1 UV-I 440 W/m 40,2 km/h (6 Bft)
17.02.2022 13:00 9,9 C 59 % 1002,6 hPa 0,0 mm 17,7 km/h (3 Bft) W 270 10 min 1 UV-I 257 W/m 40,2 km/h (6 Bft)
17.02.2022 13:10 9,7 C 58 % 1002,7 hPa 0,0 mm 17,7 km/h (3 Bft) W 270 0 min 1 UV-I 132 W/m 40,2 km/h (6 Bft)
17.02.2022 13:20 9,6 C 59 % 1002,9 hPa 0,0 mm 14,5 km/h (3 Bft) W 270 10 min 1 UV-I 436 W/m 43,5 km/h (6 Bft)
17.02.2022 13:30 9,9 C 59 % 1002,9 hPa 0,0 mm 16,1 km/h (3 Bft) W 270 10 min 2 UV-I 560 W/m 38,6 km/h (5 Bft)
17.02.2022 13:40 10,1 C 55 % 1002,9 hPa 0,0 mm 16,1 km/h (3 Bft) W 270 0 min 1 UV-I 151 W/m 37,0 km/h (5 Bft)
17.02.2022 13:50 9,7 C 58 % 1002,9 hPa 0,0 mm 16,1 km/h (3 Bft) W 270 10 min 1 UV-I 393 W/m 40,2 km/h (6 Bft)
17.02.2022 14:00 9,9 C 58 % 1003,0 hPa 0,0 mm 11,3 km/h (2 Bft) W 270 10 min 1 UV-I 471 W/m 29,0 km/h (5 Bft)
17.02.2022 14:10 10,1 C 59 % 1003,2 hPa 0,0 mm 12,9 km/h (3 Bft) W 270 0 min 1 UV-I 161 W/m 49,9 km/h (6 Bft)
17.02.2022 14:20 9,8 C 59 % 1003,0 hPa 0,0 mm 11,3 km/h (2 Bft) W 270 10 min 1 UV-I 298 W/m 33,8 km/h (5 Bft)
17.02.2022 14:30 10,3 C 58 % 1003,0 hPa 0,0 mm 11,3 km/h (2 Bft) W 270 10 min 1 UV-I 488 W/m 35,4 km/h (5 Bft)
17.02.2022 14:40 10,6 C 57 % 1003,2 hPa 0,0 mm 14,5 km/h (3 Bft) W 270 10 min 1 UV-I 256 W/m 41,8 km/h (6 Bft)
17.02.2022 14:50 10,1 C 57 % 1003,4 hPa 0,0 mm 14,5 km/h (3 Bft) W 270 0 min 1 UV-I 162 W/m 37,0 km/h (5 Bft)
17.02.2022 15:00 9,7 C 59 % 1003,4 hPa 0,0 mm 14,5 km/h (3 Bft) W-SW 248 10 min 1 UV-I 198 W/m 35,4 km/h (5 Bft)
17.02.2022 15:10 9,5 C 60 % 1003,6 hPa 0,0 mm 11,3 km/h (2 Bft) W 270 0 min 0 UV-I 58 W/m 40,2 km/h (6 Bft)
17.02.2022 15:20 9,0 C 63 % 1003,8 hPa 0,0 mm 14,5 km/h (3 Bft) W 270 0 min 1 UV-I 83 W/m 38,6 km/h (5 Bft)
17.02.2022 15:30 8,7 C 65 % 1004,0 hPa 0,0 mm 8,0 km/h (2 Bft) W 270 0 min 0 UV-I 57 W/m 27,4 km/h (4 Bft)
17.02.2022 15:40 8,6 C 64 % 1004,0 hPa 0,0 mm 11,3 km/h (2 Bft) W 270 0 min 0 UV-I 56 W/m 25,7 km/h (4 Bft)
17.02.2022 15:50 8,7 C 64 % 1004,1 hPa 0,0 mm 11,3 km/h (2 Bft) W 270 0 min 0 UV-I 81 W/m 27,4 km/h (4 Bft)
17.02.2022 16:00 8,8 C 64 % 1004,2 hPa 0,0 mm 12,9 km/h (3 Bft) W 270 0 min 0 UV-I 23 W/m 30,6 km/h (5 Bft)
17.02.2022 16:10 8,7 C 63 % 1004,4 hPa 0,0 mm 14,5 km/h (3 Bft) W 270 0 min 0 UV-I 23 W/m 35,4 km/h (5 Bft)
17.02.2022 16:20 8,7 C 64 % 1004,6 hPa 0,0 mm 11,3 km/h (2 Bft) W 270 0 min 0 UV-I 95 W/m 32,2 km/h (5 Bft)
17.02.2022 16:30 8,6 C 64 % 1004,8 hPa 0,0 mm 9,7 km/h (2 Bft) W 270 0 min 0 UV-I 87 W/m 25,7 km/h (4 Bft)
17.02.2022 16:40 8,7 C 63 % 1004,7 hPa 0,0 mm 11,3 km/h (2 Bft) W 270 10 min 0 UV-I 82 W/m 30,6 km/h (5 Bft)
17.02.2022 16:50 8,7 C 63 % 1005,0 hPa 0,0 mm 9,7 km/h (2 Bft) W 270 0 min 0 UV-I 41 W/m 25,7 km/h (4 Bft)
17.02.2022 17:00 8,6 C 64 % 1005,2 hPa 0,0 mm 9,7 km/h (2 Bft) W 270 0 min 0 UV-I 20 W/m 27,4 km/h (4 Bft)
17.02.2022 17:10 8,4 C 67 % 1005,9 hPa 0,0 mm 14,5 km/h (3 Bft) W 270 0 min 0 UV-I 11 W/m 40,2 km/h (6 Bft)
17.02.2022 17:20 7,9 C 73 % 1005,8 hPa 0,0 mm 12,9 km/h (3 Bft) W 270 0 min 0 UV-I 15 W/m 33,8 km/h (5 Bft)
17.02.2022 17:30 7,3 C 75 % 1005,7 hPa 0,0 mm 9,7 km/h (2 Bft) W 270 0 min 0 UV-I 10 W/m 22,5 km/h (4 Bft)
17.02.2022 17:40 7,0 C 76 % 1005,9 hPa 0,0 mm 9,7 km/h (2 Bft) W 270 0 min 0 UV-I 2 W/m 24,1 km/h (4 Bft)
17.02.2022 17:50 7,0 C 77 % 1006,1 hPa 0,0 mm 11,3 km/h (2 Bft) W 270 0 min 0 UV-I 0 W/m 29,0 km/h (5 Bft)
17.02.2022 18:00 7,2 C 76 % 1006,3 hPa 0,0 mm 12,9 km/h (3 Bft) W 270 0 min 0 UV-I 0 W/m 33,8 km/h (5 Bft)
17.02.2022 18:10 7,3 C 76 % 1006,3 hPa 0,0 mm 11,3 km/h (2 Bft) W 270 0 min 0 UV-I 0 W/m 25,7 km/h (4 Bft)
17.02.2022 18:20 7,3 C 76 % 1006,8 hPa 0,0 mm 8,0 km/h (2 Bft) W-NW 293 0 min 0 UV-I 0 W/m 20,9 km/h (4 Bft)
17.02.2022 18:30 7,3 C 76 % 1007,0 hPa 0,0 mm 6,4 km/h (2 Bft) W 270 0 min 0 UV-I 0 W/m 24,1 km/h (4 Bft)
17.02.2022 18:40 7,3 C 73 % 1007,3 hPa 0,0 mm 9,7 km/h (2 Bft) W 270 0 min 0 UV-I 0 W/m 32,2 km/h (5 Bft)
17.02.2022 18:50 7,4 C 71 % 1007,7 hPa 0,0 mm 11,3 km/h (2 Bft) W 270 0 min 0 UV-I 0 W/m 24,1 km/h (4 Bft)
17.02.2022 19:00 7,4 C 69 % 1008,0 hPa 0,0 mm 12,9 km/h (3 Bft) W 270 0 min 0 UV-I 0 W/m 33,8 km/h (5 Bft)
17.02.2022 19:10 7,4 C 68 % 1008,3 hPa 0,0 mm 11,3 km/h (2 Bft) W 270 0 min 0 UV-I 0 W/m 25,7 km/h (4 Bft)
17.02.2022 19:20 7,4 C 69 % 1008,3 hPa 0,0 mm 9,7 km/h (2 Bft) W 270 0 min 0 UV-I 0 W/m 30,6 km/h (5 Bft)
17.02.2022 19:30 7,3 C 70 % 1008,4 hPa 0,0 mm 11,3 km/h (2 Bft) W 270 0 min 0 UV-I 0 W/m 25,7 km/h (4 Bft)
17.02.2022 19:40 7,3 C 70 % 1008,4 hPa 0,0 mm 9,7 km/h (2 Bft) W 270 0 min 0 UV-I 0 W/m 29,0 km/h (5 Bft)
17.02.2022 19:50 7,2 C 70 % 1008,5 hPa 0,0 mm 11,3 km/h (2 Bft) W 270 0 min 0 UV-I 0 W/m 22,5 km/h (4 Bft)
17.02.2022 20:00 7,2 C 70 % 1008,4 hPa 0,0 mm 11,3 km/h (2 Bft) W 270 0 min 0 UV-I 0 W/m 29,0 km/h (5 Bft)
17.02.2022 20:10 7,1 C 70 % 1009,0 hPa 0,0 mm 11,3 km/h (2 Bft) W 270 0 min 0 UV-I 0 W/m 27,4 km/h (4 Bft)
17.02.2022 20:20 7,0 C 70 % 1009,0 hPa 0,0 mm 9,7 km/h (2 Bft) W-SW 248 0 min 0 UV-I 0 W/m 25,7 km/h (4 Bft)
17.02.2022 20:30 6,9 C 70 % 1009,0 hPa 0,0 mm 11,3 km/h (2 Bft) W 270 0 min 0 UV-I 0 W/m 22,5 km/h (4 Bft)
17.02.2022 20:40 6,8 C 70 % 1009,0 hPa 0,0 mm 8,0 km/h (2 Bft) W 270 0 min 0 UV-I 0 W/m 25,7 km/h (4 Bft)
17.02.2022 20:50 6,8 C 70 % 1009,1 hPa 0,0 mm 11,3 km/h (2 Bft) W-SW 248 0 min 0 UV-I 0 W/m 27,4 km/h (4 Bft)
17.02.2022 21:00 6,8 C 70 % 1009,1 hPa 0,0 mm 9,7 km/h (2 Bft) W 270 0 min 0 UV-I 0 W/m 27,4 km/h (4 Bft)
17.02.2022 21:10 6,8 C 69 % 1009,3 hPa 0,0 mm 8,0 km/h (2 Bft) W 270 0 min 0 UV-I 0 W/m 19,3 km/h (3 Bft)
17.02.2022 21:20 6,8 C 69 % 1009,5 hPa 0,0 mm 8,0 km/h (2 Bft) W-SW 248 0 min 0 UV-I 0 W/m 20,9 km/h (4 Bft)
17.02.2022 21:30 6,8 C 68 % 1009,6 hPa 0,0 mm 9,7 km/h (2 Bft) SW 225 0 min 0 UV-I 0 W/m 22,5 km/h (4 Bft)
17.02.2022 21:40 6,9 C 67 % 1009,5 hPa 0,0 mm 8,0 km/h (2 Bft) W-NW 293 0 min 0 UV-I 0 W/m 17,7 km/h (3 Bft)
17.02.2022 21:50 6,9 C 66 % 1009,4 hPa 0,0 mm 6,4 km/h (2 Bft) W 270 0 min 0 UV-I 0 W/m 14,5 km/h (3 Bft)
17.02.2022 22:00 6,9 C 66 % 1009,4 hPa 0,0 mm 8,0 km/h (2 Bft) W 270 0 min 0 UV-I 0 W/m 19,3 km/h (3 Bft)
17.02.2022 22:10 6,9 C 66 % 1009,7 hPa 0,0 mm 8,0 km/h (2 Bft) W 270 0 min 0 UV-I 0 W/m 19,3 km/h (3 Bft)
17.02.2022 22:20 6,9 C 71 % 1010,1 hPa 0,3 mm 11,3 km/h (2 Bft) W 270 0 min 0 UV-I 0 W/m 30,6 km/h (5 Bft)
17.02.2022 22:30 6,6 C 77 % 1010,2 hPa 0,0 mm 9,7 km/h (2 Bft) W 270 0 min 0 UV-I 0 W/m 32,2 km/h (5 Bft)
17.02.2022 22:40 6,1 C 79 % 1009,7 hPa 0,0 mm 8,0 km/h (2 Bft) W-NW 293 0 min 0 UV-I 0 W/m 20,9 km/h (4 Bft)
17.02.2022 22:50 5,8 C 80 % 1009,8 hPa 0,0 mm 4,8 km/h (1 Bft) W-NW 293 0 min 0 UV-I 0 W/m 14,5 km/h (3 Bft)
17.02.2022 23:00 5,6 C 81 % 1009,7 hPa 0,0 mm 3,2 km/h (1 Bft) W-NW 293 0 min 0 UV-I 0 W/m 8,0 km/h (2 Bft)
17.02.2022 23:10 5,5 C 82 % 1009,6 hPa 0,0 mm 1,6 km/h (1 Bft) W-SW 248 0 min 0 UV-I 0 W/m 6,4 km/h (2 Bft)
17.02.2022 23:20 5,4 C 82 % 1009,6 hPa 0,0 mm 0,0 km/h (0 Bft) N 0 0 min 0 UV-I 0 W/m 0,0 km/h (0 Bft)
17.02.2022 23:30 5,3 C 82 % 1009,4 hPa 0,0 mm 0,0 km/h (0 Bft) N 0 0 min 0 UV-I 0 W/m 0,0 km/h (0 Bft)
17.02.2022 23:40 5,2 C 83 % 1009,4 hPa 0,0 mm 0,0 km/h (0 Bft) N 0 0 min 0 UV-I 0 W/m 0,0 km/h (0 Bft)
17.02.2022 23:50 5,1 C 83 % 1009,4 hPa 0,3 mm 0,0 km/h (0 Bft) N 0 0 min 0 UV-I 0 W/m 0,0 km/h (0 Bft)
_ Min-Zeit 23:50 13:40 00:30 - 23:20 - - - - - 23:20
Minimum _ 5,1 C 55 % 987,7 hPa - 0,0 km/h (0 Bft) - - - - - 0,0 km/h (0 Bft)
_ Max-Zeit 00:00 00:00 22:30 06:10 06:10 - - 11:50 12:10 13:30 06:10
Maximum _ 13,2 C 90 % 1010,2 hPa 2,0 mm 25,7 km/h
W (4 Bft)
- - 10 min 2 UV-I 560 W/m 64,4 km/h
W (8 Bft)
Durchschnitt _ 8,6 C 74 % 999,8 hPa #13,0 mm 13,7 km/h (3 Bft) W - #2:50 h 1 UV-I 158 W/m 34,0 km/h (5 Bft)